Declo, Idaho
Current Conditions -  °F | °C
As of 7:53 PM on Tuesday 21 Oct 2014 (Local Time) from KBYI Reporting Station
Clear Clear  
Wind Chill: 36°   Ceiling: Unl
Heat Index: 41°   Visibility: 10mi
Dew Point: 34°   Wind: 8mph
Humidity: 76%   Direction: 230°SW
Pressure: 30.08"   Gusts: NA
Location:  42.52°N, 113.63°W
Report Text: KBYI 220153Z AUTO 23007KT 10SM CLR 05/01 A3008 RMK AO2 SLP186 T00500011
Loading
Personal Weather Stations






























Interactive Weather Map
Tropical Storm Tracking
New forecast layout! Learn more

10-Day Weather Forecast

Advertisements
Track Severe Weather on mobile